createdAt,value
2018-07-23T00:00:14.922Z,984.43
2018-07-23T00:01:14.899Z,984.42
2018-07-23T00:02:14.863Z,984.43
2018-07-23T00:03:14.831Z,984.44
2018-07-23T00:04:14.799Z,984.40
2018-07-23T00:05:14.772Z,984.42
2018-07-23T00:06:14.741Z,984.44
2018-07-23T00:07:14.709Z,984.44
2018-07-23T00:08:14.679Z,984.43
2018-07-23T00:09:14.645Z,984.43
2018-07-23T00:10:14.614Z,984.46
2018-07-23T00:11:14.583Z,984.45
2018-07-23T00:12:14.549Z,984.41
2018-07-23T00:13:14.526Z,984.41
2018-07-23T00:14:14.497Z,984.45
2018-07-23T00:15:14.460Z,984.41
2018-07-23T00:16:14.430Z,984.44
2018-07-23T00:17:14.393Z,984.43
2018-07-23T00:18:14.363Z,984.42
2018-07-23T00:19:14.335Z,984.43
2018-07-23T00:20:14.309Z,984.40
2018-07-23T00:21:14.277Z,984.41
2018-07-23T00:22:14.239Z,984.41
2018-07-23T00:23:14.208Z,984.42
2018-07-23T00:24:14.179Z,984.40
2018-07-23T00:25:14.150Z,984.37
2018-07-23T00:26:14.116Z,984.39
2018-07-23T00:27:14.085Z,984.36
2018-07-23T00:28:14.058Z,984.37
2018-07-23T00:29:14.021Z,984.37
2018-07-23T00:30:13.989Z,984.37
2018-07-23T00:31:13.958Z,984.43
2018-07-23T00:32:13.925Z,984.33
2018-07-23T00:33:13.899Z,984.37
2018-07-23T00:34:13.865Z,984.38
2018-07-23T00:35:13.834Z,984.36
2018-07-23T00:36:13.802Z,984.34
2018-07-23T00:37:13.776Z,984.36
2018-07-23T00:38:13.741Z,984.33
2018-07-23T00:39:13.709Z,984.33
2018-07-23T00:40:13.682Z,984.37
2018-07-23T00:41:13.643Z,984.36
2018-07-23T00:42:13.613Z,984.37
2018-07-23T00:43:13.583Z,984.42
2018-07-23T00:44:13.549Z,984.38
2018-07-23T00:45:13.524Z,984.40
2018-07-23T00:46:13.493Z,984.37
2018-07-23T00:47:13.461Z,984.36
2018-07-23T00:48:13.436Z,984.37
2018-07-23T00:49:13.393Z,984.37
2018-07-23T00:50:13.364Z,984.36
2018-07-23T00:51:13.333Z,984.36
2018-07-23T00:52:13.303Z,984.33
2018-07-23T00:53:13.268Z,984.34
2018-07-23T00:54:13.236Z,984.34
2018-07-23T00:55:13.205Z,984.31
2018-07-23T00:56:13.173Z,984.33
2018-07-23T00:57:13.148Z,984.34
2018-07-23T00:58:13.116Z,984.32
2018-07-23T00:59:13.082Z,984.34
2018-07-23T01:00:13.052Z,984.36
2018-07-23T01:01:13.017Z,984.38
2018-07-23T01:02:12.985Z,984.33
2018-07-23T01:03:12.954Z,984.37
2018-07-23T01:04:12.922Z,984.36
2018-07-23T01:05:12.894Z,984.35
2018-07-23T01:06:12.865Z,984.38
2018-07-23T01:07:12.828Z,984.37
2018-07-23T01:08:12.795Z,984.36
2018-07-23T01:09:12.768Z,984.34
2018-07-23T01:10:12.736Z,984.36
2018-07-23T01:11:12.705Z,984.35
2018-07-23T01:12:12.675Z,984.37
2018-07-23T01:13:12.640Z,984.34
2018-07-23T01:14:12.607Z,984.34
2018-07-23T01:15:12.575Z,984.31
2018-07-23T01:16:12.543Z,984.32
2018-07-23T01:17:12.516Z,984.31
2018-07-23T01:18:12.482Z,984.33
2018-07-23T01:19:12.450Z,984.33
2018-07-23T01:20:12.421Z,984.30
2018-07-23T01:21:12.387Z,984.33
2018-07-23T01:22:12.354Z,984.33
2018-07-23T01:23:12.324Z,984.35
2018-07-23T01:24:12.299Z,984.32
2018-07-23T01:25:12.256Z,984.32
2018-07-23T01:26:12.226Z,984.34
2018-07-23T01:27:12.196Z,984.35
2018-07-23T01:28:12.162Z,984.37
2018-07-23T01:29:12.135Z,984.38
2018-07-23T01:30:12.105Z,984.37
2018-07-23T01:31:12.074Z,984.34
2018-07-23T01:32:12.041Z,984.33
2018-07-23T01:33:12.003Z,984.37
2018-07-23T01:34:11.973Z,984.35
2018-07-23T01:35:11.942Z,984.33
2018-07-23T01:36:11.908Z,984.34
2018-07-23T01:37:11.883Z,984.35
2018-07-23T01:38:11.849Z,984.35
2018-07-23T01:39:11.819Z,984.36
2018-07-23T01:40:11.781Z,984.36
2018-07-23T01:41:11.755Z,984.37
2018-07-23T01:42:11.722Z,984.37
2018-07-23T01:43:11.690Z,984.39
2018-07-23T01:44:11.659Z,984.35
2018-07-23T01:45:11.621Z,984.37
2018-07-23T01:46:11.593Z,984.40
2018-07-23T01:47:11.561Z,984.39
2018-07-23T01:48:11.525Z,984.40
2018-07-23T01:49:11.502Z,984.38
2018-07-23T01:50:11.467Z,984.44
2018-07-23T01:51:11.435Z,984.45
2018-07-23T01:52:11.408Z,984.44
2018-07-23T01:53:11.369Z,984.46
2018-07-23T01:54:11.342Z,984.47
2018-07-23T01:55:11.309Z,984.47
2018-07-23T01:56:11.278Z,984.50
2018-07-23T01:57:11.242Z,984.46
2018-07-23T01:58:11.210Z,984.52
2018-07-23T01:59:11.179Z,984.49
2018-07-23T02:00:11.147Z,984.46
2018-07-23T02:01:11.119Z,984.48
2018-07-23T02:02:11.087Z,984.46
2018-07-23T02:03:11.054Z,984.46
2018-07-23T02:04:11.027Z,984.46
2018-07-23T02:05:10.987Z,984.47
2018-07-23T02:06:10.955Z,984.46
2018-07-23T02:07:10.932Z,984.44
2018-07-23T02:08:10.894Z,984.47
2018-07-23T02:09:10.866Z,984.45
2018-07-23T02:10:10.833Z,984.46
2018-07-23T02:11:10.796Z,984.47
2018-07-23T02:12:10.764Z,984.46
2018-07-23T02:13:10.736Z,984.48
2018-07-23T02:14:10.703Z,984.46
2018-07-23T02:15:10.673Z,984.47
2018-07-23T02:16:10.641Z,984.49
2018-07-23T02:17:10.603Z,984.46
2018-07-23T02:18:10.578Z,984.51
2018-07-23T02:19:10.540Z,984.48
2018-07-23T02:20:10.510Z,984.48
2018-07-23T02:21:10.480Z,984.50
2018-07-23T02:22:10.447Z,984.56
2018-07-23T02:23:10.417Z,984.53
2018-07-23T02:24:10.386Z,984.52
2018-07-23T02:25:10.347Z,984.51
2018-07-23T02:26:10.317Z,984.51
2018-07-23T02:27:10.289Z,984.53
2018-07-23T02:28:10.258Z,984.52
2018-07-23T02:29:10.219Z,984.53
2018-07-23T02:30:10.189Z,984.57
2018-07-23T02:31:10.157Z,984.57
2018-07-23T02:32:10.128Z,984.57
2018-07-23T02:33:10.099Z,984.59
2018-07-23T02:34:10.063Z,984.52
2018-07-23T02:35:10.030Z,984.55
2018-07-23T02:36:10.000Z,984.52
2018-07-23T02:37:09.963Z,984.52
2018-07-23T02:38:09.933Z,984.52
2018-07-23T02:39:09.908Z,984.52
2018-07-23T02:40:09.867Z,984.50
2018-07-23T02:41:09.840Z,984.52
2018-07-23T02:42:09.807Z,984.53
2018-07-23T02:43:09.774Z,984.48
2018-07-23T02:44:09.738Z,984.49
2018-07-23T02:45:09.712Z,984.51
2018-07-23T02:46:09.677Z,984.53
2018-07-23T02:47:09.646Z,984.48
2018-07-23T02:48:09.616Z,984.48
2018-07-23T02:49:09.576Z,984.50
2018-07-23T02:50:09.548Z,984.49
2018-07-23T02:51:09.516Z,984.51
2018-07-23T02:52:09.481Z,984.51
2018-07-23T02:53:09.453Z,984.47
2018-07-23T02:54:09.422Z,984.48
2018-07-23T02:55:09.389Z,984.50
2018-07-23T02:56:09.361Z,984.49
2018-07-23T02:57:09.319Z,984.49
2018-07-23T02:58:09.290Z,984.51
2018-07-23T02:59:09.261Z,984.50
2018-07-23T03:00:09.234Z,984.48
2018-07-23T03:01:09.190Z,984.52
2018-07-23T03:02:09.160Z,984.53
2018-07-23T03:03:09.129Z,984.52
2018-07-23T03:04:09.095Z,984.54
2018-07-23T03:05:09.067Z,984.55
2018-07-23T03:06:09.036Z,984.58
2018-07-23T03:07:09.005Z,984.57
2018-07-23T03:08:08.973Z,984.59
2018-07-23T03:09:08.934Z,984.62
2018-07-23T03:10:08.902Z,984.63
2018-07-23T03:11:08.871Z,984.65
2018-07-23T03:12:08.836Z,984.65
2018-07-23T03:13:08.812Z,984.69
2018-07-23T03:14:08.776Z,984.67
2018-07-23T03:15:08.744Z,984.67
2018-07-23T03:16:08.709Z,984.65
2018-07-23T03:17:08.681Z,984.65
2018-07-23T03:18:08.648Z,984.64
2018-07-23T03:19:08.616Z,984.64
2018-07-23T03:20:08.584Z,984.70
2018-07-23T03:21:08.546Z,984.70
2018-07-23T03:22:08.515Z,984.68
2018-07-23T03:23:08.484Z,984.65
2018-07-23T03:24:08.452Z,984.72
2018-07-23T03:25:08.421Z,984.64
2018-07-23T03:26:08.388Z,984.67
2018-07-23T03:27:08.355Z,984.70
2018-07-23T03:28:08.327Z,984.67
2018-07-23T03:29:08.286Z,984.70
2018-07-23T03:30:08.258Z,984.71
2018-07-23T03:31:08.226Z,984.76
2018-07-23T03:32:08.197Z,984.74
2018-07-23T03:33:08.159Z,984.69
2018-07-23T03:34:08.130Z,984.75
2018-07-23T03:35:08.095Z,984.70
2018-07-23T03:36:08.061Z,984.70
2018-07-23T03:37:08.032Z,984.73
2018-07-23T03:38:08.000Z,984.72
2018-07-23T03:39:07.964Z,984.74
2018-07-23T03:40:07.931Z,984.72
2018-07-23T03:41:07.904Z,984.77
2018-07-23T03:42:07.869Z,984.77
2018-07-23T03:43:07.836Z,984.73
2018-07-23T03:44:07.803Z,984.75
2018-07-23T03:45:07.768Z,984.77
2018-07-23T03:46:07.736Z,984.73
2018-07-23T03:47:07.706Z,984.73
2018-07-23T03:48:07.675Z,984.75
2018-07-23T03:49:07.642Z,984.72
2018-07-23T03:50:07.606Z,984.74
2018-07-23T03:51:07.574Z,984.77
2018-07-23T04:08:28.849Z,984.78
2018-07-23T04:09:28.783Z,984.75
2018-07-23T04:10:28.746Z,984.75
2018-07-23T04:11:28.705Z,984.76
2018-07-23T04:12:28.668Z,984.76
2018-07-23T04:13:28.633Z,984.71
2018-07-23T04:14:28.599Z,984.75
2018-07-23T04:15:28.563Z,984.73
2018-07-23T04:16:28.526Z,984.75
2018-07-23T04:17:28.547Z,984.77
2018-07-23T04:18:28.452Z,984.74
2018-07-23T04:19:28.418Z,984.75
2018-07-23T04:20:28.387Z,984.77
2018-07-23T04:21:28.354Z,984.78
2018-07-23T04:22:28.322Z,984.79
2018-07-23T04:23:28.292Z,984.78
2018-07-23T04:24:28.267Z,984.78
2018-07-23T04:25:28.216Z,984.79
2018-07-23T04:26:28.180Z,984.77
2018-07-23T04:27:28.154Z,984.80
2018-07-23T04:28:28.119Z,984.79
2018-07-23T04:29:28.084Z,984.81
2018-07-23T04:30:28.048Z,984.79
2018-07-23T04:31:28.014Z,984.80
2018-07-23T04:32:27.983Z,984.83
2018-07-23T04:33:27.951Z,984.86
2018-07-23T04:34:27.918Z,984.85
2018-07-23T04:35:27.888Z,984.87
2018-07-23T04:36:27.853Z,984.85
2018-07-23T04:37:27.819Z,984.84
2018-07-23T04:38:27.783Z,984.85
2018-07-23T04:39:27.750Z,984.83
2018-07-23T04:40:27.722Z,984.86
2018-07-23T04:41:27.688Z,984.86
2018-07-23T04:42:27.657Z,984.85
2018-07-23T04:43:27.619Z,984.79
2018-07-23T04:44:27.588Z,984.83
2018-07-23T04:45:27.556Z,984.86
2018-07-23T04:46:27.527Z,984.86
2018-07-23T04:47:27.493Z,984.88
2018-07-23T04:48:27.462Z,984.87
2018-07-23T04:49:27.424Z,984.88
2018-07-23T04:50:27.393Z,984.88
2018-07-23T04:51:27.361Z,984.92
2018-07-23T04:52:27.327Z,984.91
2018-07-23T04:53:27.297Z,984.90
2018-07-23T04:54:27.267Z,984.91
2018-07-23T04:55:27.235Z,984.94
2018-07-23T04:56:27.200Z,984.92
2018-07-23T04:57:27.166Z,984.93
2018-07-23T04:58:27.133Z,984.90
2018-07-23T04:59:27.105Z,984.92
2018-07-23T05:00:27.072Z,984.92
2018-07-23T05:01:27.036Z,984.90
2018-07-23T05:02:27.002Z,984.90
2018-07-23T05:03:26.971Z,984.95
2018-07-23T05:04:26.942Z,984.92
2018-07-23T05:05:26.908Z,984.93
2018-07-23T05:06:26.880Z,984.94
2018-07-23T05:07:26.846Z,984.97
2018-07-23T05:08:26.812Z,984.93
2018-07-23T05:09:26.779Z,984.95
2018-07-23T05:10:26.744Z,984.98
2018-07-23T05:11:26.715Z,984.94
2018-07-23T05:12:26.684Z,984.97
2018-07-23T05:13:26.651Z,984.96
2018-07-23T05:14:26.621Z,984.96
2018-07-23T05:15:26.584Z,984.97
2018-07-23T05:16:26.554Z,984.97
2018-07-23T05:17:26.525Z,984.96
2018-07-23T05:18:26.494Z,984.92
2018-07-23T05:19:26.463Z,984.95
2018-07-23T05:20:26.427Z,984.95
2018-07-23T05:21:26.392Z,984.97
2018-07-23T05:22:26.359Z,984.97
2018-07-23T05:23:26.328Z,984.97
2018-07-23T05:24:26.347Z,984.97
2018-07-23T05:25:26.265Z,984.99
2018-07-23T05:26:26.237Z,985.02
2018-07-23T05:27:26.205Z,985.01
2018-07-23T05:28:26.171Z,985.03
2018-07-23T05:29:26.135Z,984.99
2018-07-23T05:30:26.101Z,985.01
2018-07-23T05:31:26.075Z,985.02
2018-07-23T05:32:26.042Z,985.03
2018-07-23T05:33:26.008Z,985.05
2018-07-23T05:34:25.973Z,985.06
2018-07-23T05:35:25.940Z,985.03
2018-07-23T05:36:25.912Z,985.06
2018-07-23T05:37:25.883Z,985.09
2018-07-23T05:38:25.866Z,985.12
2018-07-23T05:39:25.819Z,985.10
2018-07-23T05:40:25.784Z,985.12
2018-07-23T05:41:25.750Z,985.12
2018-07-23T05:42:25.717Z,985.10
2018-07-23T05:43:25.685Z,985.10
2018-07-23T05:44:25.655Z,985.09
2018-07-23T05:45:25.625Z,985.08
2018-07-23T05:46:25.595Z,985.14
2018-07-23T05:47:25.556Z,985.14
2018-07-23T05:48:25.527Z,985.10
2018-07-23T05:49:25.501Z,985.12
2018-07-23T05:50:25.468Z,985.10
2018-07-23T05:51:25.439Z,985.10
2018-07-23T05:52:25.404Z,985.07
2018-07-23T05:53:25.369Z,985.04
2018-07-23T05:54:25.335Z,985.10
2018-07-23T05:55:25.303Z,985.09
2018-07-23T05:56:25.276Z,985.13
2018-07-23T05:57:25.244Z,985.16
2018-07-23T05:58:25.215Z,985.17
2018-07-23T05:59:25.183Z,985.20
2018-07-23T06:00:25.151Z,985.16
2018-07-23T06:01:25.121Z,985.17
2018-07-23T06:02:25.084Z,985.17
2018-07-23T06:03:25.061Z,985.15
2018-07-23T06:04:25.026Z,985.16
2018-07-23T06:05:24.991Z,985.19
2018-07-23T06:06:25.021Z,985.17
2018-07-23T06:07:24.927Z,985.18
2018-07-23T06:08:24.898Z,985.17
2018-07-23T06:09:24.869Z,985.18
2018-07-23T06:10:24.841Z,985.21
2018-07-23T06:11:24.809Z,985.25
2018-07-23T06:12:24.776Z,985.28
2018-07-23T06:13:24.756Z,985.28
2018-07-23T06:14:24.710Z,985.25
2018-07-23T06:15:24.682Z,985.26
2018-07-23T06:16:24.658Z,985.24
2018-07-23T06:17:24.657Z,985.25
2018-07-23T06:18:24.593Z,985.25
2018-07-23T06:19:24.556Z,985.24
2018-07-23T06:20:24.529Z,985.25
2018-07-23T06:21:24.502Z,985.25
2018-07-23T06:22:24.479Z,985.24
2018-07-23T06:23:24.439Z,985.28
2018-07-23T06:24:24.410Z,985.28
2018-07-23T06:25:24.375Z,985.31
2018-07-23T06:26:24.344Z,985.31
2018-07-23T06:27:24.316Z,985.30
2018-07-23T06:28:24.288Z,985.30
2018-07-23T06:29:24.250Z,985.32
2018-07-23T06:30:24.284Z,985.29
2018-07-23T06:31:24.191Z,985.32
2018-07-23T06:32:24.160Z,985.34
2018-07-23T06:33:24.135Z,985.31
2018-07-23T06:34:24.103Z,985.30
2018-07-23T06:35:24.073Z,985.31
2018-07-23T06:36:24.038Z,985.32
2018-07-23T06:37:24.013Z,985.30
2018-07-23T06:38:23.979Z,985.31
2018-07-23T06:39:23.949Z,985.30
2018-07-23T06:40:23.925Z,985.34
2018-07-23T06:41:23.889Z,985.34
2018-07-23T06:42:23.855Z,985.33
2018-07-23T06:43:23.895Z,985.34
2018-07-23T06:44:23.794Z,985.35
2018-07-23T06:45:23.772Z,985.36
2018-07-23T06:46:23.738Z,985.35
2018-07-23T06:47:23.707Z,985.33
2018-07-23T06:48:23.678Z,985.34
2018-07-23T06:49:23.640Z,985.33
2018-07-23T06:50:23.614Z,985.31
2018-07-23T06:51:23.584Z,985.26
2018-07-23T06:52:23.557Z,985.28
2018-07-23T06:53:23.522Z,985.27
2018-07-23T06:54:23.491Z,985.28
2018-07-23T06:55:23.460Z,985.31
2018-07-23T06:56:23.428Z,985.32
2018-07-23T06:57:23.465Z,985.29
2018-07-23T06:58:23.371Z,985.31
2018-07-23T06:59:23.341Z,985.32
2018-07-23T07:00:23.313Z,985.31
2018-07-23T07:01:23.276Z,985.31
2018-07-23T07:02:23.250Z,985.35
2018-07-23T07:03:23.242Z,985.34
2018-07-23T07:04:23.187Z,985.37
2018-07-23T07:05:23.162Z,985.37
2018-07-23T07:06:23.137Z,985.38
2018-07-23T07:07:23.100Z,985.38
2018-07-23T07:08:23.065Z,985.36
2018-07-23T07:09:23.039Z,985.35
2018-07-23T07:10:23.007Z,985.35
2018-07-23T07:11:22.977Z,985.40
2018-07-23T07:12:22.952Z,985.34
2018-07-23T07:13:22.928Z,985.39
2018-07-23T07:14:22.886Z,985.38
2018-07-23T07:15:22.855Z,985.33
2018-07-23T07:16:22.822Z,985.39
2018-07-23T07:17:22.798Z,985.36
2018-07-23T07:18:22.767Z,985.38
2018-07-23T07:19:22.738Z,985.37
2018-07-23T07:20:22.708Z,985.41
2018-07-23T07:21:22.670Z,985.36
2018-07-23T07:22:22.645Z,985.40
2018-07-23T07:23:22.616Z,985.41
2018-07-23T07:24:22.588Z,985.41
2018-07-23T07:25:22.609Z,985.40
2018-07-23T07:26:22.522Z,985.41
2018-07-23T07:27:22.492Z,985.44
2018-07-23T07:28:22.462Z,985.43
2018-07-23T07:29:22.437Z,985.45
2018-07-23T07:30:22.405Z,985.42
2018-07-23T07:31:22.376Z,985.41
2018-07-23T07:32:22.347Z,985.40
2018-07-23T07:33:22.311Z,985.41
2018-07-23T07:34:22.284Z,985.39
2018-07-23T07:35:22.254Z,985.41
2018-07-23T07:36:22.222Z,985.41
2018-07-23T07:37:22.197Z,985.40
2018-07-23T07:38:22.233Z,985.43
2018-07-23T07:39:22.134Z,985.45
2018-07-23T07:40:22.102Z,985.44
2018-07-23T07:41:22.078Z,985.45
2018-07-23T07:42:22.046Z,985.42
2018-07-23T07:43:22.016Z,985.41
2018-07-23T07:44:21.988Z,985.44
2018-07-23T07:45:21.953Z,985.41
2018-07-23T07:46:21.926Z,985.37
2018-07-23T07:47:21.896Z,985.42
2018-07-23T07:48:21.866Z,985.40
2018-07-23T07:49:21.838Z,985.38
2018-07-23T07:50:21.809Z,985.42
2018-07-23T07:51:21.778Z,985.42
2018-07-23T07:52:21.756Z,985.41
2018-07-23T07:53:21.714Z,985.42
2018-07-23T07:54:21.688Z,985.40
2018-07-23T07:55:21.660Z,985.38
2018-07-23T07:56:21.636Z,985.41
2018-07-23T07:57:21.597Z,985.43
2018-07-23T07:58:21.571Z,985.42
2018-07-23T07:59:21.543Z,985.42
2018-07-23T08:00:21.510Z,985.42
2018-07-23T08:01:21.484Z,985.44
2018-07-23T08:02:21.457Z,985.43
2018-07-23T08:03:21.424Z,985.40
2018-07-23T08:04:21.404Z,985.42
2018-07-23T08:05:21.363Z,985.42
2018-07-23T08:06:21.334Z,985.39
2018-07-23T08:07:21.310Z,985.46
2018-07-23T08:08:21.272Z,985.42
2018-07-23T08:09:21.249Z,985.42
2018-07-23T08:10:21.218Z,985.42
2018-07-23T08:11:21.186Z,985.41
2018-07-23T08:12:21.161Z,985.44
2018-07-23T08:13:21.131Z,985.44
2018-07-23T08:14:21.101Z,985.42
2018-07-23T08:15:21.071Z,985.40
2018-07-23T08:16:21.044Z,985.41
2018-07-23T08:17:21.009Z,985.46
2018-07-23T08:18:20.983Z,985.37
2018-07-23T08:19:20.952Z,985.40
2018-07-23T08:20:20.921Z,985.42
2018-07-23T08:21:20.897Z,985.41
2018-07-23T08:22:20.867Z,985.41
2018-07-23T08:23:20.837Z,985.42
2018-07-23T08:24:20.811Z,985.44
2018-07-23T08:25:20.776Z,985.42
2018-07-23T08:26:20.748Z,985.43
2018-07-23T08:27:20.723Z,985.43
2018-07-23T08:28:20.693Z,985.48
2018-07-23T08:29:20.658Z,985.46
2018-07-23T08:30:20.632Z,985.47
2018-07-23T08:31:20.604Z,985.61
2018-07-23T08:32:20.590Z,985.53
2018-07-23T08:33:20.550Z,985.54
2018-07-23T08:34:20.516Z,985.56
2018-07-23T08:35:20.489Z,985.61
2018-07-23T08:36:20.464Z,985.60
2018-07-23T08:37:20.425Z,985.57
2018-07-23T08:38:20.398Z,985.58
2018-07-23T08:39:20.371Z,985.59
2018-07-23T08:40:20.338Z,985.61
2018-07-23T08:41:20.314Z,985.57
2018-07-23T08:42:20.284Z,985.52
2018-07-23T08:43:20.253Z,985.55
2018-07-23T08:44:20.223Z,985.57
2018-07-23T08:45:20.205Z,985.53
2018-07-23T08:46:20.168Z,985.55
2018-07-23T08:47:20.140Z,985.55
2018-07-23T08:48:20.112Z,985.53
2018-07-23T08:49:20.077Z,985.50
2018-07-23T08:50:20.052Z,985.48
2018-07-23T08:51:20.063Z,985.45
2018-07-23T08:52:19.993Z,985.48
2018-07-23T08:53:19.969Z,985.49
2018-07-23T08:54:19.937Z,985.51
2018-07-23T08:55:19.908Z,985.51
2018-07-23T08:56:19.883Z,985.52
2018-07-23T08:57:19.893Z,985.55
2018-07-23T08:58:19.820Z,985.64
2018-07-23T08:59:19.793Z,985.60
2018-07-23T09:00:19.767Z,985.58
2018-07-23T09:01:19.730Z,985.51
2018-07-23T09:02:19.758Z,985.52
2018-07-23T09:03:19.676Z,985.55
2018-07-23T09:04:19.645Z,985.59
2018-07-23T09:05:19.625Z,985.56
2018-07-23T09:06:19.592Z,985.66
2018-07-23T09:07:19.564Z,985.61
2018-07-23T09:08:19.569Z,985.58
2018-07-23T09:09:19.502Z,985.58
2018-07-23T09:10:19.476Z,985.60
2018-07-23T09:11:19.448Z,985.63
2018-07-23T09:12:19.418Z,985.59
2018-07-23T09:13:19.396Z,985.63
2018-07-23T09:14:19.363Z,985.57
2018-07-23T09:15:19.333Z,985.59
2018-07-23T09:16:19.302Z,985.63
2018-07-23T09:17:19.323Z,985.58
2018-07-23T09:18:19.254Z,985.63
2018-07-23T09:19:19.221Z,985.58
2018-07-23T09:20:19.194Z,985.63
2018-07-23T09:21:19.194Z,985.63
2018-07-23T09:22:19.137Z,985.66
2018-07-23T09:23:19.105Z,985.61
2018-07-23T09:24:19.075Z,985.60
2018-07-23T09:25:19.053Z,985.63
2018-07-23T09:26:19.023Z,985.57
2018-07-23T09:27:18.994Z,985.62
2018-07-23T09:28:18.967Z,985.63
2018-07-23T09:29:18.935Z,985.60
2018-07-23T09:30:18.943Z,985.56
2018-07-23T09:31:18.881Z,985.55
2018-07-23T09:32:18.855Z,985.52
2018-07-23T09:33:18.820Z,985.53
2018-07-23T09:34:18.794Z,985.53
2018-07-23T09:35:18.768Z,985.56
2018-07-23T09:36:18.737Z,985.58
2018-07-23T09:37:18.780Z,985.59
2018-07-23T09:38:18.683Z,985.56
2018-07-23T09:39:18.656Z,985.55
2018-07-23T09:40:18.629Z,985.57
2018-07-23T09:41:18.594Z,985.55
2018-07-23T09:42:18.571Z,985.54
2018-07-23T09:43:18.539Z,985.57
2018-07-23T09:44:18.510Z,985.60
2018-07-23T09:45:18.489Z,985.66
2018-07-23T09:46:18.457Z,985.60
2018-07-23T09:47:18.428Z,985.62
2018-07-23T09:48:18.398Z,985.61
2018-07-23T09:49:18.376Z,985.59
2018-07-23T09:50:18.346Z,985.62
2018-07-23T09:51:18.317Z,985.59
2018-07-23T09:52:18.291Z,985.57
2018-07-23T09:53:18.258Z,985.61
2018-07-23T09:54:18.232Z,985.61
2018-07-23T09:55:18.204Z,985.59
2018-07-23T09:56:18.175Z,985.56
2018-07-23T09:57:18.151Z,985.57
2018-07-23T09:58:18.121Z,985.59
2018-07-23T09:59:18.095Z,985.59
2018-07-23T10:00:18.069Z,985.67
2018-07-23T10:01:18.038Z,985.62
2018-07-23T10:02:18.009Z,985.61
2018-07-23T10:03:18.059Z,985.61
2018-07-23T10:04:17.959Z,985.65
2018-07-23T10:05:17.921Z,985.69
2018-07-23T10:06:17.896Z,985.70
2018-07-23T10:07:17.868Z,985.73
2018-07-23T10:21:16.523Z,985.54
2018-07-23T10:22:16.453Z,985.46
2018-07-23T10:23:16.415Z,985.41
2018-07-23T10:24:16.385Z,985.43
2018-07-23T10:25:16.348Z,985.40
2018-07-23T10:26:16.318Z,985.42
2018-07-23T10:27:16.287Z,985.41
2018-07-23T10:28:16.258Z,985.47
2018-07-23T10:29:16.233Z,985.44
2018-07-23T10:30:16.210Z,985.46
2018-07-23T10:31:16.170Z,985.45
2018-07-23T10:32:16.143Z,985.46
2018-07-23T10:33:16.108Z,985.47
2018-07-23T10:34:16.079Z,985.53
2018-07-23T10:35:16.088Z,985.52
2018-07-23T10:36:16.038Z,985.52
2018-07-23T10:37:15.992Z,985.50
2018-07-23T10:38:15.965Z,985.52
2018-07-23T10:39:15.937Z,985.48
2018-07-23T10:40:15.909Z,985.44
2018-07-23T10:41:15.965Z,985.45
2018-07-23T10:42:15.852Z,985.45
2018-07-23T10:43:15.827Z,985.45
2018-07-23T10:44:15.798Z,985.43
2018-07-23T10:45:15.764Z,985.47
2018-07-23T10:46:15.740Z,985.44
2018-07-23T10:47:15.710Z,985.43
2018-07-23T10:48:15.679Z,985.41
2018-07-23T10:49:15.659Z,985.39
2018-07-23T10:50:15.627Z,985.43
2018-07-23T10:51:15.598Z,985.40
2018-07-23T10:52:15.568Z,985.42
2018-07-23T10:53:15.546Z,985.44
2018-07-23T10:54:15.515Z,985.40
2018-07-23T10:55:15.487Z,985.43
2018-07-23T10:56:15.461Z,985.41
2018-07-23T10:57:15.440Z,985.41
2018-07-23T10:58:15.401Z,985.42
2018-07-23T10:59:15.374Z,985.40
2018-07-23T11:00:15.346Z,985.45
2018-07-23T11:01:15.324Z,985.44
2018-07-23T11:02:15.292Z,985.45
2018-07-23T11:03:15.265Z,985.43
2018-07-23T11:04:15.269Z,985.44
2018-07-23T11:05:15.206Z,985.49
2018-07-23T11:06:15.180Z,985.48
2018-07-23T11:07:15.173Z,985.44
2018-07-23T11:08:15.129Z,985.42
2018-07-23T11:09:15.099Z,985.41
2018-07-23T11:10:15.099Z,985.44
2018-07-23T11:11:15.047Z,985.50
2018-07-23T11:12:15.013Z,985.45
2018-07-23T11:13:14.994Z,985.45
2018-07-23T11:14:14.961Z,985.44
2018-07-23T11:15:14.938Z,985.45
2018-07-23T11:16:14.914Z,985.46
2018-07-23T11:17:14.875Z,985.48
2018-07-23T11:18:14.850Z,985.56
2018-07-23T11:19:14.831Z,985.47
2018-07-23T11:20:14.795Z,985.46
2018-07-23T11:21:14.778Z,985.38
2018-07-23T11:22:14.746Z,985.39
2018-07-23T11:23:14.714Z,985.35
2018-07-23T11:24:14.686Z,985.33
2018-07-23T11:25:38.504Z,985.38
2018-07-23T11:26:14.690Z,985.34
2018-07-23T11:27:14.606Z,985.34
2018-07-23T11:28:14.584Z,985.37
2018-07-23T11:29:14.551Z,985.38
2018-07-23T11:30:14.525Z,985.38
2018-07-23T11:31:14.497Z,985.31
2018-07-23T11:32:14.468Z,985.33
2018-07-23T11:33:14.447Z,985.34
2018-07-23T11:34:14.415Z,985.33
2018-07-23T11:35:14.389Z,985.36
2018-07-23T11:36:14.364Z,985.34
2018-07-23T11:37:14.329Z,985.39
2018-07-23T11:38:14.304Z,985.38
2018-07-23T11:39:14.279Z,985.37
2018-07-23T11:40:14.254Z,985.44
2018-07-23T11:41:14.220Z,985.38
2018-07-23T11:42:14.196Z,985.34
2018-07-23T11:43:14.167Z,985.32
2018-07-23T11:44:14.140Z,985.30
2018-07-23T11:45:14.123Z,985.33
2018-07-23T11:46:24.449Z,985.31
2018-07-23T11:47:14.069Z,985.31
2018-07-23T11:48:14.036Z,985.32
2018-07-23T11:49:14.001Z,985.34
2018-07-23T11:50:13.976Z,985.37
2018-07-23T11:51:13.948Z,985.34
2018-07-23T11:52:14.354Z,985.35
2018-07-23T11:53:13.936Z,985.33
2018-07-23T11:54:13.870Z,985.31
2018-07-23T11:55:13.841Z,985.36
2018-07-23T11:56:13.818Z,985.35
2018-07-23T11:57:13.790Z,985.38
2018-07-23T11:58:13.760Z,985.42
2018-07-23T11:59:13.732Z,985.39
2018-07-23T12:00:13.713Z,985.44
2018-07-23T12:01:13.676Z,985.40
2018-07-23T12:02:13.651Z,985.43
2018-07-23T12:03:13.623Z,985.40
2018-07-23T12:04:13.617Z,985.40
2018-07-23T12:05:13.575Z,985.42
2018-07-23T12:06:13.541Z,985.40
2018-07-23T12:07:13.514Z,985.41
2018-07-23T12:08:13.489Z,985.42
2018-07-23T12:09:13.459Z,985.43
2018-07-23T12:10:13.431Z,985.45
2018-07-23T12:11:13.408Z,985.41
2018-07-23T12:12:13.380Z,985.43
2018-07-23T12:13:13.347Z,985.43
2018-07-23T12:14:13.321Z,985.42
2018-07-23T12:15:13.300Z,985.42
2018-07-23T12:16:13.265Z,985.43
2018-07-23T12:17:13.265Z,985.39
2018-07-23T12:18:13.229Z,985.39
2018-07-23T12:19:13.189Z,985.39
2018-07-23T12:20:13.163Z,985.42
2018-07-23T12:21:13.128Z,985.45
2018-07-23T12:22:13.102Z,985.45
2018-07-23T12:23:13.080Z,985.41
2018-07-23T12:24:13.048Z,985.41
2018-07-23T12:25:13.029Z,985.37
2018-07-23T12:26:12.996Z,985.40
2018-07-23T12:27:12.965Z,985.43
2018-07-23T12:28:12.938Z,985.44
2018-07-23T12:29:12.916Z,985.40
2018-07-23T12:30:12.886Z,985.40
2018-07-23T12:31:12.858Z,985.41
2018-07-23T12:32:12.836Z,985.40
2018-07-23T12:33:12.803Z,985.39
2018-07-23T12:34:12.780Z,985.40
2018-07-23T12:35:12.750Z,985.41
2018-07-23T12:36:12.720Z,985.39
2018-07-23T12:37:12.701Z,985.43
2018-07-23T12:38:12.670Z,985.39
2018-07-23T12:39:12.641Z,985.35
2018-07-23T12:40:12.618Z,985.39
2018-07-23T12:41:12.583Z,985.41
2018-07-23T12:42:12.558Z,985.41
2018-07-23T12:43:12.536Z,985.38
2018-07-23T12:44:12.507Z,985.38
2018-07-23T12:45:12.476Z,985.37
2018-07-23T12:46:12.452Z,985.40
2018-07-23T12:47:12.504Z,985.34
2018-07-23T12:48:12.396Z,985.36
2018-07-23T12:49:12.373Z,985.35
2018-07-23T12:50:12.346Z,985.30
2018-07-23T12:51:12.317Z,985.33
2018-07-23T12:52:12.293Z,985.34
2018-07-23T12:53:12.260Z,985.27
2018-07-23T12:54:12.233Z,985.33
2018-07-23T12:55:12.207Z,985.32
2018-07-23T12:56:12.178Z,985.32
2018-07-23T12:57:12.157Z,985.33